Time;durP1;ratioP1;P1;durP2;ratioP2;P2;SDS_P1;SDS_P2;PMS_P1;PMS_P2;Temp;Humidity;BMP_temperature;BMP_pressure;BME280_temperature;BME280_humidity;BME280_pressure;Samples;Min_cycle;Max_cycle;Signal;HPM_P1;HPM_P2
2022/11/16 00:01:27;;;;;;;4.90;4.60;;;14.90;99.90;;;;;;5034567;28;20448;-66
2022/11/16 00:03:55;;;;;;;5.17;4.77;;;14.90;99.90;;;;;;5054317;28;20254;-67
2022/11/16 00:06:22;;;;;;;4.60;4.20;;;14.90;99.90;;;;;;5052733;28;20798;-67
2022/11/16 00:11:37;;;;;;;5.00;4.70;;;14.90;99.90;;;;;;5053066;28;20444;-67
2022/11/16 00:14:04;;;;;;;5.47;5.10;;;14.90;99.90;;;;;;5035530;28;20429;-66
2022/11/16 00:16:29;;;;;;;4.20;4.00;;;14.90;99.90;;;;;;5052937;28;20522;-67
2022/11/16 00:18:57;;;;;;;5.27;4.77;;;15.00;99.90;;;;;;5052656;28;20430;-67
2022/11/16 00:21:23;;;;;;;5.30;4.90;;;14.90;99.90;;;;;;5053338;28;20174;-67
2022/11/16 00:23:49;;;;;;;5.53;5.13;;;14.90;99.90;;;;;;5053919;28;20413;-67
2022/11/16 00:26:15;;;;;;;5.40;5.00;;;14.80;99.90;;;;;;5053377;28;20424;-67
2022/11/16 00:28:40;;;;;;;4.30;4.00;;;14.70;99.90;;;;;;5054151;28;20184;-67
2022/11/16 00:31:07;;;;;;;5.50;4.87;;;14.60;99.90;;;;;;5052771;28;20201;-67
2022/11/16 00:33:33;;;;;;;4.87;4.47;;;14.60;99.90;;;;;;5053169;28;20526;-67
2022/11/16 00:36:08;;;;;;;5.00;4.60;;;14.60;99.90;;;;;;5053182;28;20474;-67
2022/11/16 00:38:34;;;;;;;5.00;4.43;;;14.70;99.90;;;;;;5053635;28;20431;-67
2022/11/16 00:41:00;;;;;;;4.93;4.53;;;14.80;99.90;;;;;;5052834;28;20507;-66
2022/11/16 00:43:26;;;;;;;5.17;4.80;;;14.80;99.90;;;;;;5052700;28;20179;-67
2022/11/16 00:45:52;;;;;;;5.50;5.10;;;14.90;99.90;;;;;;5053491;28;20174;-67
2022/11/16 00:48:18;;;;;;;5.30;5.00;;;14.90;99.90;;;;;;5052132;28;20502;-68
2022/11/16 00:50:44;;;;;;;5.70;5.27;;;14.90;99.90;;;;;;5033715;28;20496;-67
2022/11/16 00:53:15;;;;;;;5.80;5.30;;;14.90;99.90;;;;;;5032533;28;20406;-67
2022/11/16 00:55:43;;;;;;;5.23;4.83;;;14.80;99.90;;;;;;5033350;28;20825;-67
2022/11/16 00:58:12;;;;;;;6.03;5.57;;;14.80;99.90;;;;;;5033353;28;20411;-66
2022/11/16 01:00:38;;;;;;;5.90;5.30;;;14.70;99.90;;;;;;5035581;28;20437;-67
2022/11/16 01:03:03;;;;;;;6.50;6.00;;;14.50;99.90;;;;;;5053246;28;20765;-67
2022/11/16 01:05:31;;;;;;;6.03;5.63;;;14.50;99.90;;;;;;5052510;28;20421;-67
2022/11/16 01:07:57;;;;;;;6.63;6.00;;;14.50;99.90;;;;;;5035159;28;20712;-67
2022/11/16 01:10:24;;;;;;;6.10;5.60;;;14.60;99.90;;;;;;5051357;28;20447;-67
2022/11/16 01:12:51;;;;;;;5.50;5.00;;;14.50;99.90;;;;;;5052992;28;20408;-67
2022/11/16 01:15:19;;;;;;;5.97;5.47;;;14.60;99.90;;;;;;5052298;28;20453;-67
2022/11/16 01:17:45;;;;;;;5.93;5.53;;;14.60;99.90;;;;;;5052972;28;20454;-67
2022/11/16 01:20:17;;;;;;;5.87;5.47;;;14.60;99.90;;;;;;5051441;28;20435;-67
2022/11/16 01:22:43;;;;;;;5.67;5.27;;;14.60;99.90;;;;;;5052843;28;20201;-67
2022/11/16 01:25:10;;;;;;;5.43;4.97;;;14.60;99.90;;;;;;5052767;28;20415;-67
2022/11/16 01:27:37;;;;;;;5.40;4.90;;;14.60;99.90;;;;;;5052495;28;20860;-67
2022/11/16 01:30:04;;;;;;;5.47;5.17;;;14.70;99.90;;;;;;5052724;28;20764;-67
2022/11/16 01:32:30;;;;;;;5.70;5.30;;;14.70;99.90;;;;;;5052123;28;20409;-67
2022/11/16 01:34:56;;;;;;;6.23;5.73;;;14.70;99.90;;;;;;5052745;28;20470;-67
2022/11/16 01:37:21;;;;;;;6.10;5.60;;;14.70;99.90;;;;;;5051233;28;20222;-67
2022/11/16 01:39:48;;;;;;;5.67;5.27;;;14.70;99.90;;;;;;5052300;28;20639;-67
2022/11/16 01:42:23;;;;;;;5.70;5.20;;;14.70;99.90;;;;;;5051993;28;20228;-67
2022/11/16 01:44:49;;;;;;;5.90;5.30;;;14.70;99.90;;;;;;5052559;28;20409;-67
2022/11/16 01:47:16;;;;;;;6.37;5.80;;;14.70;99.90;;;;;;5052019;28;20426;-67
2022/11/16 01:49:46;;;;;;;5.60;5.20;;;14.70;99.90;;;;;;5051238;28;20538;-67
2022/11/16 01:52:20;;;;;;;5.87;5.47;;;14.70;99.90;;;;;;5052846;28;20408;-67
2022/11/16 01:54:48;;;;;;;5.77;5.37;;;14.60;99.90;;;;;;5052672;28;20405;-67
2022/11/16 01:57:19;;;;;;;5.90;5.40;;;14.50;99.90;;;;;;5052178;28;20511;-68
2022/11/16 01:59:48;;;;;;;6.17;5.67;;;14.60;99.90;;;;;;5052180;28;20480;-67
2022/11/16 02:02:15;;;;;;;6.10;5.67;;;14.50;99.90;;;;;;5033796;28;20876;-69
2022/11/16 02:04:41;;;;;;;5.50;5.10;;;14.50;99.90;;;;;;5050578;28;20486;-67
2022/11/16 02:10:27;;;;;;;6.40;5.90;;;14.50;99.90;;;;;;5002659;28;20450;-67
2022/11/16 02:13:01;;;;;;;5.80;5.40;;;14.60;99.90;;;;;;5051623;28;20420;-67
2022/11/16 02:15:43;;;;;;;5.67;5.27;;;14.50;99.90;;;;;;5049604;28;20491;-67
2022/11/16 02:18:16;;;;;;;6.00;5.60;;;14.60;99.90;;;;;;5052323;28;20464;-67
2022/11/16 02:20:44;;;;;;;5.60;5.20;;;14.50;99.90;;;;;;5050006;28;20436;-67
2022/11/16 02:23:35;;;;;;;5.70;5.30;;;14.50;99.90;;;;;;5051783;28;20457;-66
2022/11/16 02:26:19;;;;;;;5.53;5.07;;;14.50;99.90;;;;;;5051123;28;20468;-67
2022/11/16 02:29:08;;;;;;;5.40;5.10;;;14.60;99.90;;;;;;5051792;28;20461;-67
2022/11/16 02:31:41;;;;;;;5.50;5.10;;;14.60;99.90;;;;;;5050963;28;20405;-67
2022/11/16 02:34:10;;;;;;;5.57;5.17;;;14.60;99.90;;;;;;5050027;28;20825;-67
2022/11/16 02:36:39;;;;;;;6.30;5.80;;;14.60;99.90;;;;;;5050759;28;20484;-67
2022/11/16 02:39:17;;;;;;;5.63;5.13;;;14.60;99.90;;;;;;5051637;28;20407;-67
2022/11/16 02:41:46;;;;;;;5.77;5.37;;;14.60;99.90;;;;;;5053717;28;20389;-67
2022/11/16 02:44:19;;;;;;;5.60;5.20;;;14.60;99.90;;;;;;5055423;28;20494;-67
2022/11/16 02:46:49;;;;;;;6.47;5.87;;;14.50;99.90;;;;;;5055365;28;20402;-67
2022/11/16 02:49:18;;;;;;;5.80;5.40;;;14.40;99.90;;;;;;5054536;28;20478;-67
2022/11/16 02:51:47;;;;;;;6.10;5.60;;;14.40;99.90;;;;;;5054992;28;20501;-67
2022/11/16 02:54:18;;;;;;;6.00;5.40;;;14.30;99.90;;;;;;5055291;28;20442;-66
2022/11/16 02:56:54;;;;;;;5.73;5.33;;;14.20;99.90;;;;;;5054462;28;20463;-67
2022/11/16 02:59:23;;;;;;;5.90;5.40;;;14.20;99.90;;;;;;5054842;28;20421;-69
2022/11/16 03:02:01;;;;;;;5.40;5.10;;;14.30;99.90;;;;;;5053777;28;20425;-67
2022/11/16 03:04:40;;;;;;;5.30;5.00;;;14.30;99.90;;;;;;5054433;28;20405;-67
2022/11/16 03:07:09;;;;;;;5.27;4.77;;;14.40;99.90;;;;;;5053934;28;20472;-67
2022/11/16 03:09:37;;;;;;;4.70;4.30;;;14.40;99.90;;;;;;5036369;28;20426;-67
2022/11/16 03:12:08;;;;;;;4.93;4.60;;;14.40;99.90;;;;;;5054380;28;20436;-67
2022/11/16 03:14:37;;;;;;;4.80;4.40;;;14.50;99.90;;;;;;5054018;28;20481;-69
2022/11/16 03:17:07;;;;;;;4.60;4.30;;;14.50;99.90;;;;;;5054675;28;20468;-67
2022/11/16 03:19:40;;;;;;;5.20;4.80;;;14.30;99.90;;;;;;5049793;28;20463;-67
2022/11/16 03:22:13;;;;;;;4.80;4.50;;;14.40;99.90;;;;;;5055082;28;20760;-67
2022/11/16 03:24:39;;;;;;;5.47;4.97;;;14.40;99.90;;;;;;5054623;28;20653;-67
2022/11/16 03:27:17;;;;;;;4.83;4.53;;;14.50;99.90;;;;;;5055059;28;20471;-67
2022/11/16 03:29:57;;;;;;;4.93;4.63;;;14.50;99.90;;;;;;5053649;28;20468;-67
2022/11/16 03:32:26;;;;;;;5.33;4.47;;;14.50;99.90;;;;;;5054439;28;20404;-67
2022/11/16 03:35:14;;;;;;;5.70;5.40;;;14.60;99.90;;;;;;5054743;28;20447;-67
2022/11/16 03:37:42;;;;;;;5.60;5.10;;;14.50;99.90;;;;;;5054043;28;20874;-67
2022/11/16 03:40:09;;;;;;;5.03;4.73;;;14.60;99.90;;;;;;5054910;28;20426;-67
2022/11/16 03:42:36;;;;;;;5.13;4.83;;;14.60;99.90;;;;;;5054203;28;20504;-67
2022/11/16 03:45:03;;;;;;;5.10;4.60;;;14.60;99.90;;;;;;5054051;28;20422;-67
2022/11/16 03:47:29;;;;;;;4.53;4.30;;;14.60;99.90;;;;;;5053588;28;20453;-67
2022/11/16 03:49:55;;;;;;;4.70;4.40;;;14.70;99.90;;;;;;5054046;28;20447;-67
2022/11/16 03:52:21;;;;;;;4.60;4.30;;;14.60;99.90;;;;;;5053935;28;20405;-69
2022/11/16 03:54:46;;;;;;;4.93;4.63;;;14.60;99.90;;;;;;5053568;28;20223;-68
2022/11/16 03:57:16;;;;;;;5.37;5.03;;;14.60;99.90;;;;;;5054382;28;20492;-67
2022/11/16 03:59:42;;;;;;;4.70;4.40;;;14.60;99.90;;;;;;5053919;28;20192;-67
2022/11/16 04:02:08;;;;;;;4.53;4.23;;;14.60;99.90;;;;;;5054351;28;20951;-67
2022/11/16 04:29:18;;;;;;;4.00;3.70;;;14.60;99.90;;;;;;5054053;28;20397;-67
2022/11/16 04:40:04;;;;;;;2.90;2.80;;;14.60;99.90;;;;;;5053130;28;20443;-67
2022/11/16 04:42:30;;;;;;;5.50;5.30;;;14.60;99.90;;;;;;5053026;28;20413;-68
2022/11/16 04:47:40;;;;;;;3.47;3.27;;;14.60;99.90;;;;;;5052935;28;20223;-67
2022/11/16 04:50:06;;;;;;;5.43;5.13;;;14.60;99.90;;;;;;5053313;28;20416;-67
2022/11/16 04:52:31;;;;;;;3.80;3.33;;;14.60;99.90;;;;;;5051734;28;20193;-67
2022/11/16 04:54:57;;;;;;;3.00;2.80;;;14.60;99.90;;;;;;5052141;28;20447;-67
2022/11/16 04:57:23;;;;;;;3.20;3.00;;;14.60;99.90;;;;;;5033673;28;20213;-66
2022/11/16 04:59:48;;;;;;;5.10;4.90;;;14.60;99.90;;;;;;5037036;28;20189;-67
2022/11/16 05:02:14;;;;;;;3.40;3.20;;;14.60;99.90;;;;;;5034825;28;20183;-67
2022/11/16 05:04:42;;;;;;;5.27;4.97;;;14.60;99.90;;;;;;5032148;28;20170;-68
2022/11/16 05:07:10;;;;;;;3.23;3.03;;;14.60;99.90;;;;;;5050285;28;20317;-68
2022/11/16 05:09:41;;;;;;;5.10;4.87;;;14.50;99.90;;;;;;5034485;28;20780;-68
2022/11/16 05:12:08;;;;;;;5.57;5.17;;;14.60;99.90;;;;;;5044261;28;20422;-68
2022/11/16 05:14:34;;;;;;;4.90;4.60;;;14.60;99.90;;;;;;5037592;28;20905;-68
2022/11/16 05:17:00;;;;;;;4.83;4.53;;;14.60;99.90;;;;;;5052142;28;20470;-68
2022/11/16 05:22:10;;;;;;;5.60;5.30;;;14.50;99.90;;;;;;5052363;28;20172;-68
2022/11/16 05:24:35;;;;;;;3.83;3.63;;;14.50;99.90;;;;;;5051758;28;20410;-68
2022/11/16 05:27:04;;;;;;;5.73;5.43;;;14.50;99.90;;;;;;5031597;28;20177;-68
2022/11/16 05:29:30;;;;;;;3.80;3.60;;;14.50;99.90;;;;;;5023117;28;20273;-68
2022/11/16 05:31:57;;;;;;;4.40;4.20;;;14.40;99.90;;;;;;5033626;28;20852;-68
2022/11/16 05:34:23;;;;;;;4.83;4.47;;;14.40;99.90;;;;;;5033833;28;20554;-68
2022/11/16 05:36:48;;;;;;;4.80;3.20;;;14.40;99.90;;;;;;5051354;28;20475;-68
2022/11/16 05:39:14;;;;;;;3.77;3.57;;;14.30;99.90;;;;;;5052447;28;20243;-68
2022/11/16 05:41:40;;;;;;;5.27;5.00;;;14.30;99.90;;;;;;5042012;28;20277;-68
2022/11/16 05:44:05;;;;;;;5.07;3.73;;;14.30;99.90;;;;;;5035237;28;20757;-69
2022/11/16 05:46:31;;;;;;;4.70;4.20;;;14.30;99.90;;;;;;5036155;28;20646;-70
2022/11/16 05:48:57;;;;;;;5.73;5.33;;;14.30;99.90;;;;;;5033043;28;20232;-69
2022/11/16 05:51:23;;;;;;;3.30;3.10;;;14.30;99.90;;;;;;5042254;28;20451;-69
2022/11/16 05:53:48;;;;;;;4.00;3.80;;;14.30;99.90;;;;;;5043418;28;20185;-68
2022/11/16 05:56:15;;;;;;;4.70;4.50;;;14.30;99.90;;;;;;5048664;28;20560;-68
2022/11/16 05:58:41;;;;;;;3.50;3.30;;;14.30;99.90;;;;;;5051319;28;20186;-68
2022/11/16 06:01:07;;;;;;;2.40;2.23;;;14.40;99.90;;;;;;5048672;28;20446;-68
2022/11/16 06:03:35;;;;;;;4.33;4.13;;;14.30;99.90;;;;;;5051255;28;20407;-69
2022/11/16 06:06:01;;;;;;;3.40;3.20;;;14.30;99.90;;;;;;5052210;28;20323;-68
2022/11/16 06:08:28;;;;;;;2.80;2.70;;;14.30;99.90;;;;;;5051825;28;20463;-68
2022/11/16 06:10:54;;;;;;;2.90;2.80;;;14.10;99.90;;;;;;5033824;28;20435;-68
2022/11/16 06:13:20;;;;;;;3.13;2.90;;;14.10;99.90;;;;;;5052211;28;20508;-68
2022/11/16 06:15:46;;;;;;;2.77;2.57;;;14.10;99.90;;;;;;5052200;28;20480;-68
2022/11/16 06:18:17;;;;;;;1.57;1.47;;;14.10;99.90;;;;;;5051198;28;20282;-68
2022/11/16 06:20:43;;;;;;;4.77;4.57;;;14.00;99.90;;;;;;5034660;28;20436;-68
2022/11/16 06:23:09;;;;;;;3.53;3.40;;;14.00;99.90;;;;;;5054775;28;20454;-68
2022/11/16 06:25:38;;;;;;;3.47;3.17;;;14.00;99.90;;;;;;5046568;28;20220;-68
2022/11/16 06:28:04;;;;;;;2.83;2.70;;;14.10;99.90;;;;;;5053572;28;20228;-68
2022/11/16 06:30:29;;;;;;;2.93;2.80;;;14.10;99.90;;;;;;5048597;28;20478;-71
2022/11/16 06:32:55;;;;;;;3.43;3.23;;;14.00;99.90;;;;;;5053215;28;20522;-68
2022/11/16 06:35:21;;;;;;;3.70;3.50;;;14.10;99.90;;;;;;5055694;28;20252;-68
2022/11/16 06:37:47;;;;;;;2.80;2.67;;;14.10;99.90;;;;;;5054709;28;20193;-68
2022/11/16 06:40:12;;;;;;;5.83;5.40;;;14.10;99.90;;;;;;5055133;28;20441;-68
2022/11/16 06:42:38;;;;;;;2.77;2.60;;;14.10;99.90;;;;;;5052402;28;20596;-68
2022/11/16 06:45:04;;;;;;;2.70;2.50;;;14.10;99.90;;;;;;5038451;28;20524;-68
2022/11/16 06:47:30;;;;;;;3.50;3.40;;;14.10;99.90;;;;;;5055458;28;20174;-71
2022/11/16 06:49:56;;;;;;;2.40;2.20;;;14.20;99.90;;;;;;5055444;28;20426;-68
2022/11/16 06:52:24;;;;;;;6.47;5.70;;;14.20;99.90;;;;;;5055905;28;20423;-68
2022/11/16 06:54:50;;;;;;;4.07;3.77;;;14.20;99.90;;;;;;5053942;28;20653;-68
2022/11/16 06:57:16;;;;;;;3.63;3.33;;;14.20;99.90;;;;;;5055233;28;20456;-68
2022/11/16 06:59:41;;;;;;;3.70;3.03;;;14.20;99.90;;;;;;5054990;28;20178;-68
2022/11/16 07:02:09;;;;;;;4.97;4.73;;;14.20;99.90;;;;;;5055324;28;20252;-68
2022/11/16 07:04:35;;;;;;;3.20;3.00;;;14.10;99.90;;;;;;5053195;28;20213;-69
2022/11/16 07:07:00;;;;;;;5.00;4.70;;;14.00;99.90;;;;;;5055415;28;20580;-68
2022/11/16 07:09:26;;;;;;;3.67;3.47;;;14.00;99.90;;;;;;5054747;28;20181;-69
2022/11/16 07:11:53;;;;;;;5.50;4.00;;;14.00;99.90;;;;;;5044737;28;20234;-68
2022/11/16 07:14:19;;;;;;;6.13;5.70;;;14.00;99.90;;;;;;5055331;28;20415;-68
2022/11/16 07:16:44;;;;;;;4.13;3.83;;;14.10;99.90;;;;;;5052727;28;20236;-69
2022/11/16 07:19:10;;;;;;;3.70;3.50;;;14.00;99.90;;;;;;5049930;28;20274;-68
2022/11/16 07:21:36;;;;;;;3.10;3.00;;;14.10;99.90;;;;;;5046248;28;20269;-67
2022/11/16 07:24:03;;;;;;;4.60;3.73;;;14.10;99.90;;;;;;5050832;28;20181;-68
2022/11/16 07:26:31;;;;;;;4.13;3.93;;;14.10;99.90;;;;;;5053603;28;20450;-67
2022/11/16 07:28:58;;;;;;;3.60;3.40;;;14.10;99.90;;;;;;5054001;28;20428;-67
2022/11/16 07:31:24;;;;;;;4.33;3.90;;;14.00;99.90;;;;;;5046623;28;20421;-67
2022/11/16 07:33:50;;;;;;;4.53;4.23;;;14.10;99.90;;;;;;5051724;28;20757;-68
2022/11/16 07:36:17;;;;;;;4.17;3.87;;;14.00;99.90;;;;;;5052347;28;20468;-68
2022/11/16 07:38:43;;;;;;;2.87;2.67;;;14.10;99.90;;;;;;5040776;28;20432;-67
2022/11/16 07:41:11;;;;;;;4.70;4.40;;;14.10;99.90;;;;;;5051385;28;20441;-67
2022/11/16 07:43:38;;;;;;;3.63;3.33;;;14.00;99.90;;;;;;5052747;28;20777;-70
2022/11/16 07:46:08;;;;;;;3.70;3.40;;;14.00;99.90;;;;;;5036431;28;20814;-67
2022/11/16 07:48:34;;;;;;;4.23;3.93;;;14.00;99.90;;;;;;5047619;28;20430;-70
2022/11/16 07:51:11;;;;;;;3.40;3.10;;;13.90;99.90;;;;;;5034800;28;20412;-67
2022/11/16 07:53:37;;;;;;;3.43;3.17;;;13.90;99.90;;;;;;5033897;28;20634;-67
2022/11/16 07:56:04;;;;;;;6.60;6.10;;;13.90;99.90;;;;;;5034306;28;20925;-67
2022/11/16 07:58:34;;;;;;;4.00;3.60;;;13.90;99.90;;;;;;5034705;28;20419;-67
2022/11/16 08:01:12;;;;;;;4.37;3.30;;;14.00;99.90;;;;;;5017598;28;20424;-67
2022/11/16 08:03:38;;;;;;;5.10;4.80;;;14.00;99.90;;;;;;5034016;28;20416;-67
2022/11/16 08:06:07;;;;;;;5.00;4.37;;;14.10;99.90;;;;;;5051479;28;20814;-67
2022/11/16 08:08:33;;;;;;;5.63;5.30;;;14.00;99.90;;;;;;5044806;28;20495;-67
2022/11/16 08:11:00;;;;;;;3.63;3.33;;;13.80;99.90;;;;;;5047910;28;20465;-67
2022/11/16 08:13:25;;;;;;;3.33;3.10;;;13.80;99.90;;;;;;5054212;28;20772;-67
2022/11/16 08:15:51;;;;;;;4.87;3.90;;;13.80;99.90;;;;;;5052823;28;20456;-67
2022/11/16 08:18:18;;;;;;;4.93;4.63;;;13.90;99.90;;;;;;5050870;28;20929;-67
2022/11/16 08:20:45;;;;;;;4.10;3.90;;;13.90;99.90;;;;;;5038701;28;20181;-67
2022/11/16 08:23:10;;;;;;;4.67;4.40;;;13.90;99.90;;;;;;5035993;28;20423;-67
2022/11/16 08:25:36;;;;;;;3.97;3.67;;;14.00;99.90;;;;;;5035812;28;20515;-70
2022/11/16 08:28:02;;;;;;;3.60;3.33;;;14.00;99.90;;;;;;5035541;28;20700;-67
2022/11/16 08:30:28;;;;;;;3.60;3.40;;;14.00;99.90;;;;;;5045686;28;20231;-67
2022/11/16 08:32:53;;;;;;;3.67;3.37;;;14.10;99.90;;;;;;5045990;28;20169;-67
2022/11/16 08:35:19;;;;;;;3.20;2.80;;;14.10;99.90;;;;;;5053077;28;20181;-67
2022/11/16 08:37:45;;;;;;;4.20;3.67;;;14.10;99.90;;;;;;5052999;28;20181;-67
2022/11/16 08:40:11;;;;;;;3.73;3.43;;;14.20;99.90;;;;;;5053195;28;20269;-67
2022/11/16 08:42:37;;;;;;;2.80;2.60;;;14.40;99.90;;;;;;5053497;28;20722;-70
2022/11/16 08:45:03;;;;;;;5.00;2.67;;;14.90;99.90;;;;;;5053707;28;20421;-67
2022/11/16 08:47:30;;;;;;;3.43;2.87;;;15.50;99.90;;;;;;5053361;28;20199;-68
2022/11/16 08:49:55;;;;;;;3.10;2.70;;;16.20;99.90;;;;;;5052996;28;20170;-68
2022/11/16 08:52:21;;;;;;;2.87;2.60;;;16.70;99.90;;;;;;5034866;28;20430;-68
2022/11/16 08:54:47;;;;;;;4.73;3.60;;;17.40;99.90;;;;;;5052823;28;20192;-68
2022/11/16 08:57:12;;;;;;;4.97;2.77;;;18.00;98.70;;;;;;5035529;28;20201;-68
2022/11/16 08:59:38;;;;;;;4.33;3.10;;;18.80;97.30;;;;;;5050803;28;20186;-70
2022/11/16 09:02:04;;;;;;;3.87;3.47;;;19.30;95.10;;;;;;5043803;28;20265;-69
2022/11/16 09:04:30;;;;;;;3.87;3.57;;;20.00;93.10;;;;;;5033733;28;20250;-68
2022/11/16 09:06:56;;;;;;;5.07;2.90;;;20.80;91.00;;;;;;5032436;28;20940;-68
2022/11/16 09:09:21;;;;;;;3.90;3.70;;;21.60;87.40;;;;;;5014313;28;20185;-67
2022/11/16 09:11:50;;;;;;;2.70;2.50;;;22.40;83.80;;;;;;5042897;28;20241;-68
2022/11/16 09:14:16;;;;;;;2.77;2.30;;;23.00;81.50;;;;;;5049198;28;20185;-68
2022/11/16 09:16:41;;;;;;;3.20;2.90;;;23.40;78.30;;;;;;5051392;28;20813;-68
2022/11/16 09:19:07;;;;;;;4.43;2.73;;;23.40;76.00;;;;;;5050765;28;20227;-68
2022/11/16 09:21:35;;;;;;;3.17;2.77;;;23.40;74.40;;;;;;5050907;28;20240;-67
2022/11/16 09:24:01;;;;;;;3.20;2.30;;;23.20;73.60;;;;;;5051572;28;20735;-68
2022/11/16 09:26:32;;;;;;;3.60;3.30;;;23.00;74.80;;;;;;5052590;28;20416;-68
2022/11/16 09:28:59;;;;;;;4.33;3.23;;;22.80;74.50;;;;;;5052307;28;20457;-68
2022/11/16 09:31:26;;;;;;;3.30;3.10;;;22.60;75.70;;;;;;5050924;28;20428;-68
2022/11/16 09:33:53;;;;;;;5.07;4.63;;;22.50;77.00;;;;;;5052423;28;20424;-68
2022/11/16 09:36:20;;;;;;;3.30;2.70;;;22.30;78.00;;;;;;5052670;28;20466;-68
2022/11/16 09:38:46;;;;;;;3.23;2.93;;;22.00;76.70;;;;;;5052067;28;20435;-68
2022/11/16 09:41:14;;;;;;;3.90;3.60;;;21.40;77.20;;;;;;5052648;28;20416;-68
2022/11/16 09:44:00;;;;;;;3.03;2.30;;;21.00;78.40;;;;;;5052676;28;20428;-68
2022/11/16 09:46:33;;;;;;;3.90;3.60;;;20.70;79.20;;;;;;5052824;28;20419;-68
2022/11/16 09:49:04;;;;;;;3.80;3.40;;;20.10;80.80;;;;;;5051894;28;20405;-68
2022/11/16 09:51:32;;;;;;;3.20;2.90;;;19.90;81.10;;;;;;5052740;28;20404;-67
2022/11/16 09:54:13;;;;;;;3.90;2.57;;;19.80;83.20;;;;;;5051937;28;20409;-68
2022/11/16 09:56:41;;;;;;;4.20;2.20;;;19.90;83.20;;;;;;5034071;28;20990;-68
2022/11/16 09:59:07;;;;;;;4.30;2.90;;;19.80;82.70;;;;;;5034688;28;20543;-67
2022/11/16 10:01:45;;;;;;;4.27;3.00;;;19.70;82.70;;;;;;5052513;28;20396;-67
2022/11/16 10:04:25;;;;;;;4.77;4.37;;;19.50;81.40;;;;;;5052379;28;20177;-67
2022/11/16 10:07:10;;;;;;;3.33;3.07;;;19.50;84.60;;;;;;5033677;28;20464;-68
2022/11/16 10:09:36;;;;;;;3.97;3.60;;;19.70;83.40;;;;;;5052481;28;20431;-67
2022/11/16 10:12:13;;;;;;;3.50;3.10;;;19.50;83.30;;;;;;5051792;28;20616;-68
2022/11/16 10:15:03;;;;;;;3.93;3.63;;;19.10;83.80;;;;;;5052258;28;20800;-67
2022/11/16 10:18:08;;;;;;;4.93;2.83;;;18.80;84.80;;;;;;5052377;28;20439;-67
2022/11/16 10:21:02;;;;;;;3.23;2.93;;;18.50;86.20;;;;;;5038011;28;20430;-67
2022/11/16 10:23:48;;;;;;;5.03;2.70;;;18.00;88.40;;;;;;5042792;28;20791;-67
2022/11/16 10:26:26;;;;;;;3.63;2.63;;;17.80;90.20;;;;;;5052432;28;20484;-68
2022/11/16 10:28:54;;;;;;;5.13;2.83;;;17.60;90.50;;;;;;5050621;28;20938;-68
2022/11/16 10:31:50;;;;;;;4.53;2.50;;;17.40;91.30;;;;;;5051262;28;21000;-67
2022/11/16 10:34:23;;;;;;;2.60;2.40;;;17.20;91.70;;;;;;5052186;28;20457;-67
2022/11/16 10:36:48;;;;;;;3.60;2.40;;;17.00;92.20;;;;;;5033654;28;20464;-68
2022/11/16 10:39:18;;;;;;;3.43;2.10;;;17.30;92.90;;;;;;5052077;28;20419;-67
2022/11/16 10:41:51;;;;;;;4.07;2.60;;;17.60;91.30;;;;;;5051758;28;20531;-67
2022/11/16 10:44:32;;;;;;;4.47;3.50;;;18.00;90.50;;;;;;5052078;28;20389;-67
2022/11/16 10:47:21;;;;;;;2.33;2.20;;;18.40;89.00;;;;;;5051459;28;20936;-68
2022/11/16 10:50:16;;;;;;;3.93;2.60;;;18.80;85.80;;;;;;5051507;28;20396;-67
2022/11/16 10:52:41;;;;;;;3.10;2.90;;;19.00;84.50;;;;;;5049956;28;20908;-67
2022/11/16 10:55:13;;;;;;;2.70;2.23;;;19.20;85.20;;;;;;5051094;28;20466;-67
2022/11/16 10:57:55;;;;;;;2.87;1.93;;;19.60;83.60;;;;;;5050554;28;20281;-67
2022/11/16 11:00:50;;;;;;;3.30;2.47;;;19.70;80.40;;;;;;5051262;28;20482;-68
2022/11/16 11:03:29;;;;;;;2.17;1.93;;;19.80;81.70;;;;;;5054463;28;20977;-68
2022/11/16 11:05:55;;;;;;;3.73;2.67;;;20.00;77.70;;;;;;5054890;28;20392;-68
2022/11/16 11:08:29;;;;;;;3.90;2.60;;;20.00;78.20;;;;;;5055562;28;20466;-68
2022/11/16 11:12:36;;;;;;;2.50;2.40;;;19.90;80.50;;;;;;5054993;28;20179;-67
2022/11/16 11:14:07;;;;;;;4.27;3.90;;;19.90;79.70;;;;;;5054719;28;20420;-70
2022/11/16 11:16:33;;;;;;;2.80;2.60;;;20.00;77.60;;;;;;5055422;28;20451;-68
2022/11/16 11:19:26;;;;;;;2.30;2.10;;;20.20;78.00;;;;;;5053183;28;20846;-68
2022/11/16 11:21:59;;;;;;;3.43;3.03;;;20.20;75.30;;;;;;5054691;28;20162;-68
2022/11/16 11:24:25;;;;;;;2.10;1.90;;;20.30;76.40;;;;;;5055494;28;20511;-68
2022/11/16 11:26:57;;;;;;;2.80;2.70;;;20.50;76.10;;;;;;5054455;28;20424;-68
2022/11/16 11:29:34;;;;;;;2.90;2.37;;;20.70;74.00;;;;;;5055140;28;20399;-68
2022/11/16 11:32:13;;;;;;;5.40;2.20;;;20.00;72.00;;;;;;5054117;28;20412;-68
2022/11/16 11:34:42;;;;;;;2.70;2.33;;;19.90;76.10;;;;;;5054928;28;20391;-68
2022/11/16 11:37:28;;;;;;;2.60;2.40;;;20.10;76.80;;;;;;5053920;28;20507;-68
2022/11/16 11:40:09;;;;;;;4.20;2.50;;;20.30;74.50;;;;;;5054469;28;20409;-68
2022/11/16 11:42:58;;;;;;;5.40;3.07;;;20.30;74.90;;;;;;5054915;28;20404;-68
2022/11/16 11:45:30;;;;;;;2.70;2.50;;;20.30;74.60;;;;;;5054874;28;20443;-68
2022/11/16 11:48:28;;;;;;;3.53;3.23;;;20.30;73.50;;;;;;5054100;28;20409;-68
2022/11/16 11:51:28;;;;;;;4.07;2.97;;;20.20;73.60;;;;;;5036818;28;20440;-68
2022/11/16 11:53:57;;;;;;;4.10;3.80;;;20.30;73.50;;;;;;5054060;28;20400;-68
2022/11/16 11:56:24;;;;;;;2.63;2.50;;;20.30;73.30;;;;;;5054472;28;20786;-66
2022/11/16 11:58:50;;;;;;;2.17;1.90;;;20.20;74.60;;;;;;5054007;28;20416;-67
2022/11/16 12:01:38;;;;;;;3.40;2.10;;;20.10;73.30;;;;;;5054505;28;20400;-67
2022/11/16 12:04:12;;;;;;;2.17;2.07;;;19.80;74.10;;;;;;5053909;28;20491;-67
2022/11/16 12:06:48;;;;;;;3.10;2.73;;;19.70;73.80;;;;;;5036636;28;20462;-67
2022/11/16 12:09:34;;;;;;;2.80;2.60;;;19.60;76.90;;;;;;5054468;28;20404;-67
2022/11/16 12:12:26;;;;;;;3.80;2.30;;;19.50;78.30;;;;;;5012258;28;20481;-67
2022/11/16 12:15:27;;;;;;;2.60;2.40;;;19.50;77.00;;;;;;5054082;28;20401;-68
2022/11/16 12:18:21;;;;;;;2.50;2.40;;;19.10;75.00;;;;;;5052939;28;20451;-68
2022/11/16 12:21:08;;;;;;;3.30;2.97;;;18.80;77.20;;;;;;5054232;28;20477;-67
2022/11/16 12:23:41;;;;;;;3.27;2.93;;;18.80;77.30;;;;;;5053893;28;20772;-67
2022/11/16 12:26:32;;;;;;;4.47;2.40;;;18.60;77.90;;;;;;5053499;28;20406;-67
2022/11/16 12:29:02;;;;;;;3.57;2.27;;;18.40;78.80;;;;;;5053152;28;20966;-67
2022/11/16 12:31:27;;;;;;;2.77;2.50;;;18.10;79.70;;;;;;5054096;28;20447;-67
2022/11/16 12:34:21;;;;;;;5.00;2.77;;;17.90;80.30;;;;;;5053593;28;20802;-66
2022/11/16 12:36:59;;;;;;;2.87;2.67;;;18.00;81.40;;;;;;5036011;28;20223;-67
2022/11/16 12:39:41;;;;;;;3.33;2.30;;;18.10;80.40;;;;;;5053946;28;20491;-67
2022/11/16 12:42:29;;;;;;;3.00;2.70;;;18.10;80.90;;;;;;5053133;28;20412;-67
2022/11/16 12:45:04;;;;;;;3.50;2.40;;;18.20;81.00;;;;;;5052946;28;20405;-69
2022/11/16 12:47:48;;;;;;;3.03;2.80;;;18.10;80.70;;;;;;5033753;28;20405;-67
2022/11/16 12:50:28;;;;;;;4.00;2.47;;;17.50;80.10;;;;;;5032846;28;20422;-67
2022/11/16 12:53:16;;;;;;;3.77;3.47;;;17.40;82.70;;;;;;5032802;28;20388;-70
2022/11/16 12:55:59;;;;;;;5.00;2.90;;;17.40;83.70;;;;;;5033172;28;20788;-67
2022/11/16 12:58:33;;;;;;;4.90;3.03;;;17.40;83.30;;;;;;5033649;28;20414;-67
2022/11/16 13:01:21;;;;;;;3.97;1.70;;;17.50;84.20;;;;;;5014724;28;20425;-67
2022/11/16 13:03:59;;;;;;;5.80;2.60;;;17.60;83.90;;;;;;5033107;28;20413;-67
2022/11/16 13:06:33;;;;;;;2.63;1.43;;;17.40;84.30;;;;;;5033128;28;20413;-67
2022/11/16 13:09:12;;;;;;;4.27;1.93;;;17.70;84.40;;;;;;5032804;28;20412;-67
2022/11/16 13:12:00;;;;;;;4.20;2.77;;;17.60;82.30;;;;;;5033386;28;20476;-67
2022/11/16 13:14:40;;;;;;;3.13;2.00;;;17.60;82.40;;;;;;5033306;28;20438;-67
2022/11/16 13:17:06;;;;;;;3.23;3.13;;;16.90;84.40;;;;;;5047616;28;20970;-67
2022/11/16 13:19:38;;;;;;;3.40;3.10;;;17.10;84.80;;;;;;5035273;28;20416;-67
2022/11/16 13:22:18;;;;;;;3.10;2.53;;;17.20;84.70;;;;;;5052770;28;20397;-67
2022/11/16 13:25:01;;;;;;;3.03;2.30;;;17.30;85.40;;;;;;5052486;28;20812;-67
2022/11/16 13:27:36;;;;;;;1.70;1.60;;;17.30;86.40;;;;;;5053111;28;20788;-67
2022/11/16 13:30:04;;;;;;;2.73;1.60;;;17.30;84.70;;;;;;5052017;28;20419;-67
2022/11/16 13:32:59;;;;;;;5.50;1.93;;;17.10;82.30;;;;;;5052737;28;20409;-67
2022/11/16 13:35:26;;;;;;;2.20;2.10;;;17.00;84.20;;;;;;5052745;28;20404;-67
2022/11/16 13:37:52;;;;;;;4.20;3.70;;;16.90;84.10;;;;;;5052894;28;20424;-67
2022/11/16 13:40:32;;;;;;;2.90;2.70;;;16.90;84.60;;;;;;5034368;28;20813;-67
2022/11/16 13:43:08;;;;;;;4.07;3.77;;;16.90;85.80;;;;;;5052185;28;20228;-67
2022/11/16 13:45:42;;;;;;;4.17;2.67;;;16.60;85.50;;;;;;5052018;28;20428;-67
2022/11/16 13:48:32;;;;;;;2.17;1.97;;;16.10;89.00;;;;;;5051984;28;20784;-67
2022/11/16 13:51:04;;;;;;;4.67;3.03;;;16.20;88.90;;;;;;5051690;28;20926;-67
2022/11/16 13:53:45;;;;;;;2.40;2.20;;;16.10;89.90;;;;;;5052642;28;20550;-67